Date,TemperatureHighF,TemperatureAvgF,TemperatureLowF,DewpointHighF,DewpointAvgF,DewpointLowF,HumidityHigh,HumidityAvg,HumidityLow,PressureMaxIn,PressureMinIn,WindSpeedMaxMPH,WindSpeedAvgMPH,GustSpeedMaxMPH,PrecipitationSumIn
2013-1-28,39.4,39.3,39.2,35.8,35.7,35.4,87,87,86,29.96,29.65,2,2,7,0.00
2013-1-29,46.4,41.0,35.8,39.5,36.5,32.4,95,84,68,30.21,29.96,3,0,8,0.04
2013-1-30,45.0,41.5,38.8,41.9,39.7,37.8,97,93,85,30.28,30.21,1,0,5,0.00
2013-1-31,53.7,42.8,39.0,46.8,40.9,36.8,97,93,75,30.28,30.17,5,1,9,0.00
2013-2-1,48.4,40.9,34.0,42.3,38.4,32.7,96,91,76,30.35,30.26,2,0,6,0.00
2013-2-2,53.2,39.8,32.4,41.9,36.5,30.6,96,88,65,30.35,30.17,4,1,47,0.00
2013-2-3,43.5,40.9,39.2,41.2,39.1,37.5,96,93,87,30.21,30.06,4,1,8,0.01
2013-2-4,49.3,42.3,38.7,43.3,39.4,36.3,97,90,77,30.06,29.74,7,2,13,0.01
2013-2-5,50.0,43.1,39.2,45.0,40.3,36.9,95,90,79,29.74,29.62,8,2,15,0.24
2013-2-6,44.4,41.1,37.8,41.4,38.3,35.4,96,90,80,29.86,29.62,13,3,21,0.40
2013-2-7,46.8,40.0,31.6,40.0,35.0,28.5,95,83,57,30.12,29.60,8,2,13,0.14
2013-2-8,44.8,39.3,32.0,38.3,34.9,30.2,93,84,73,30.22,30.12,4,1,6,0.00
2013-2-9,42.8,38.0,31.6,39.8,36.0,30.1,96,92,87,30.28,30.18,2,0,5,0.00
2013-2-10,43.7,40.8,38.8,40.6,38.6,36.7,95,92,87,30.30,30.23,3,0,6,0.00
2013-2-11,46.4,41.8,38.1,40.5,38.5,36.3,94,88,74,30.25,30.22,3,0,7,0.00
2013-2-12,50.9,44.3,39.2,43.8,39.5,33.8,95,84,64,30.27,30.11,7,1,14,0.00
2013-2-13,50.9,41.1,30.7,39.2,34.4,27.8,92,78,60,30.38,30.14,4,0,8,0.00
2013-2-14,42.8,41.1,38.5,41.4,39.5,35.6,96,94,89,30.50,30.38,5,1,9,0.20
2013-2-15,46.8,42.9,39.7,42.4,40.0,38.2,95,90,81,30.50,30.10,3,0,6,0.02
2013-2-16,60.4,44.2,36.7,44.7,37.6,34.2,96,80,41,30.09,29.97,6,1,13,0.01
2013-2-17,49.8,39.9,30.9,35.9,32.8,27.6,90,76,57,30.14,30.02,5,1,12,0.00
2013-2-18,43.0,39.3,36.1,37.8,36.1,33.0,94,88,80,30.02,29.68,8,2,14,0.27
2013-2-19,48.0,40.1,34.2,40.6,35.4,27.9,95,84,64,29.91,29.68,8,2,14,0.05
2013-2-20,42.3,37.1,29.1,39.5,34.3,26.4,94,89,83,29.93,29.88,5,1,10,0.00
2013-2-21,54.9,42.9,38.1,38.6,36.3,32.8,91,79,45,29.90,29.83,6,1,12,0.01
2013-2-22,51.1,42.3,38.8,43.7,34.2,26.1,94,74,50,29.86,29.46,12,3,22,0.22
2013-2-23,51.3,41.2,31.3,37.4,31.5,25.7,89,69,49,30.22,29.70,9,2,16,0.00
2013-2-24,43.9,40.7,37.6,40.3,37.1,32.6,96,87,78,30.23,29.68,11,4,20,0.33
2013-2-25,56.1,41.8,30.6,41.0,33.9,26.5,96,75,49,30.15,29.59,8,2,18,0.06
2013-2-26,43.2,36.7,28.6,38.3,33.1,26.2,96,87,72,30.19,30.03,8,2,15,0.26
2013-2-27,44.6,37.2,28.9,40.9,33.9,27.7,96,88,72,30.21,30.06,5,1,9,0.01
2013-2-28,43.2,40.1,38.7,41.6,38.2,35.3,96,93,88,30.19,30.09,11,3,16,0.39
2013-3-1,53.1,47.8,43.2,49.6,45.2,41.6,95,91,83,30.14,30.08,5,1,9,0.63
2013-3-2,48.0,43.6,35.1,44.3,40.4,33.0,94,89,81,30.12,29.95,8,1,15,0.15
2013-3-3,50.9,40.9,34.0,36.2,32.6,29.2,91,73,54,30.23,30.09,11,4,21,0.00
2013-3-4,51.8,39.0,29.5,37.7,30.9,26.3,91,74,45,30.24,29.92,5,1,9,0.00
2013-3-5,45.3,37.8,31.5,37.3,33.3,28.2,94,84,62,29.92,29.71,8,1,13,0.14
2013-3-6,48.7,41.9,36.9,39.1,35.9,32.1,94,80,55,29.76,29.57,8,2,14,0.01
2013-3-7,45.5,41.4,34.3,42.1,39.4,32.3,96,92,85,30.04,29.77,7,1,14,0.01
2013-3-8,54.9,40.4,30.7,42.9,34.8,28.3,96,82,53,30.15,25.51,57,1,58,0.00
2013-3-9,50.4,38.8,27.9,41.2,35.3,26.4,96,88,69,30.39,30.16,6,1,10,0.00
2013-3-10,50.0,42.4,34.0,41.2,38.0,31.6,93,85,69,30.40,30.32,7,1,11,0.00
2013-3-11,48.7,41.0,31.6,40.2,37.1,30.3,96,87,69,30.35,30.04,5,1,10,0.35
2013-3-12,57.2,47.2,39.7,49.5,43.5,38.7,96,87,73,30.03,29.84,8,2,13,0.24
2013-3-13,54.5,49.1,44.6,48.4,46.7,33.5,98,92,76,30.08,29.89,11,2,17,0.02
2013-3-14,55.6,48.5,45.9,48.1,46.2,44.3,98,92,75,30.00,29.89,8,3,15,0.15
2013-3-15,57.7,47.6,38.8,49.6,44.6,36.9,97,90,68,30.09,30.00,5,1,9,0.02
2013-3-16,54.0,41.9,35.1,43.5,35.9,28.0,97,82,41,30.01,29.73,8,2,21,0.01
2013-3-17,54.0,41.0,31.5,33.6,29.1,26.5,86,64,40,30.05,29.84,6,1,13,0.00
2013-3-18,52.2,41.9,32.7,37.7,32.1,27.9,93,70,46,30.15,29.93,9,2,17,0.02
2013-3-19,45.9,39.1,29.1,39.9,32.4,26.6,97,78,52,30.14,29.44,12,3,21,0.79
2013-3-20,59.4,44.5,32.7,49.8,39.1,28.3,99,84,41,29.84,29.16,14,4,23,0.79
2013-3-21,54.3,37.5,26.2,34.2,29.1,22.9,92,74,38,30.12,29.84,8,1,14,0.08
2013-3-22,48.0,38.2,29.7,31.6,27.8,25.0,86,68,42,30.29,30.11,11,3,20,0.00
2013-3-23,48.9,38.8,29.7,35.1,31.2,26.0,89,75,58,30.30,30.22,8,2,13,0.00
2013-3-24,48.7,41.3,33.1,35.2,30.7,23.9,88,68,39,30.23,30.07,7,2,11,0.00
2013-3-25,59.2,46.5,36.9,39.8,33.4,28.8,85,63,35,30.08,29.90,8,1,13,0.00
2013-3-26,63.0,48.7,39.4,39.3,36.5,34.1,83,65,37,29.95,29.90,4,1,7,0.00
2013-3-27,62.1,52.0,42.8,44.0,39.4,35.1,78,63,45,29.93,29.87,7,1,12,0.00
2013-3-28,66.0,52.0,41.7,47.6,43.0,38.4,91,73,49,30.06,29.93,4,1,8,0.00
2013-3-29,65.3,50.3,36.7,50.8,41.6,35.1,96,75,49,30.19,30.06,6,1,8,0.00
2013-3-30,65.1,52.8,38.7,44.6,39.9,33.8,94,65,39,30.22,30.04,8,2,15,0.00
2013-3-31,69.1,57.2,45.1,42.2,38.8,36.0,75,52,31,30.03,29.85,8,2,13,0.00
2013-4-1,67.6,51.9,38.1,46.9,41.9,34.5,90,71,47,30.01,29.87,7,2,13,0.00
2013-4-2,58.5,49.8,42.6,45.2,43.1,39.8,92,79,61,30.12,30.01,6,1,11,0.00
2013-4-3,63.9,51.0,41.2,46.0,43.4,38.8,94,77,50,30.12,29.92,7,1,10,0.00
2013-4-4,52.5,48.2,44.2,48.5,45.4,41.7,97,90,76,29.91,29.49,5,1,9,0.41
2013-4-5,63.3,52.3,46.2,48.9,45.9,41.3,97,80,52,29.69,29.51,7,2,15,0.00
2013-4-6,56.7,47.5,37.8,46.3,40.1,33.6,97,78,44,29.77,29.50,8,2,14,0.20
2013-4-7,58.5,47.1,37.6,41.0,38.8,35.7,95,75,49,29.78,29.53,11,3,18,0.01
2013-4-8,59.2,50.7,43.9,43.1,40.1,37.3,86,68,47,30.14,29.77,8,2,14,0.00
2013-4-9,47.3,44.4,40.6,44.0,41.8,38.1,97,91,80,30.24,30.02,8,2,18,0.13
2013-4-10,59.0,50.1,44.6,48.1,43.4,35.7,98,80,53,30.11,29.73,14,3,24,0.28
2013-4-11,56.3,47.1,36.3,36.8,33.9,28.1,85,62,36,30.21,30.07,11,2,20,0.00
2013-4-12,44.4,40.3,35.6,39.4,35.6,30.5,90,83,66,30.07,29.53,14,3,24,0.04
2013-4-13,52.2,42.5,30.2,39.0,33.5,27.1,92,72,52,29.89,29.62,8,2,14,0.02
2013-4-14,55.4,43.6,34.3,39.1,33.8,30.0,86,70,46,29.93,29.84,7,1,10,0.00
2013-4-15,62.1,49.5,35.1,40.1,35.0,23.3,82,60,26,30.12,29.84,9,2,18,0.00
2013-4-16,63.3,50.9,37.8,36.9,29.6,12.9,85,49,17,30.29,30.12,8,2,12,0.00
2013-4-17,60.4,48.0,39.7,43.7,38.4,29.1,88,70,53,30.33,30.28,5,1,8,0.02
2013-4-18,49.8,45.5,42.8,45.1,42.9,40.6,96,91,79,30.33,30.05,8,3,14,0.17
2013-4-19,62.8,51.5,46.0,49.8,46.3,43.3,98,84,53,30.06,29.97,10,2,17,0.06
2013-4-20,58.1,50.3,46.0,45.6,42.6,39.4,91,76,56,30.15,30.05,7,2,13,0.00
2013-4-21,57.9,48.6,36.7,40.6,37.9,32.2,85,68,48,30.33,30.13,9,2,18,0.00
2013-4-22,62.8,50.6,33.8,37.5,25.9,3.5,89,46,10,30.49,30.34,8,2,15,0.00
2013-4-23,64.6,53.5,42.3,35.3,29.3,22.8,61,40,25,30.34,30.21,9,2,18,0.00
2013-4-24,68.0,57.0,43.0,40.1,34.5,27.3,66,45,25,30.26,29.99,7,2,13,0.00
2013-4-25,68.2,57.1,47.5,47.9,41.9,34.7,85,58,38,30.04,29.97,9,2,16,0.00
2013-4-26,64.2,52.3,40.5,48.7,43.9,36.2,94,75,50,30.15,30.04,8,2,13,0.00
2013-4-27,64.8,54.9,46.4,46.9,41.1,33.3,74,60,45,30.06,29.97,8,2,15,0.00
2013-4-28,59.0,51.5,39.7,39.9,35.7,30.7,83,57,38,30.29,29.81,6,2,10,0.00
2013-4-29,56.3,47.2,39.7,37.7,33.9,27.5,88,62,36,30.06,29.80,13,4,24,0.04
2013-4-30,57.2,46.9,37.6,34.8,28.0,15.4,79,51,21,30.36,30.06,11,4,30,0.00
2013-5-1,61.9,50.8,37.2,41.0,33.7,26.0,75,54,27,30.52,30.36,5,1,9,0.00
2013-5-2,65.3,53.0,36.9,40.8,37.0,32.8,86,58,32,30.50,30.33,10,2,20,0.00
2013-5-3,72.7,61.5,50.5,46.7,42.5,35.3,77,52,26,30.37,30.18,11,4,18,0.00
2013-5-4,77.9,66.1,53.1,47.4,40.8,34.1,65,42,25,30.23,29.97,8,3,15,0.00
2013-5-5,87.1,73.6,58.8,45.7,40.2,29.4,51,31,13,29.97,29.73,8,3,15,0.00
2013-5-6,85.8,71.9,50.7,51.9,43.7,38.4,77,41,20,29.80,29.69,6,2,12,0.00
2013-5-7,77.2,68.5,55.4,53.9,47.8,40.0,82,49,35,29.88,29.73,8,2,15,0.00
2013-5-8,72.9,61.1,48.2,54.0,50.8,45.8,94,71,52,30.04,29.88,7,1,12,0.00
2013-5-9,77.2,62.8,47.3,53.6,50.0,45.6,95,66,41,30.14,30.03,6,1,10,0.00
2013-5-10,76.8,63.5,48.9,56.4,49.4,44.5,93,64,39,30.13,30.04,5,1,8,0.00
2013-5-11,70.9,59.8,54.1,55.1,51.6,45.8,95,76,45,30.07,29.92,7,2,12,0.21
2013-5-12,69.3,61.8,56.3,59.8,54.8,45.4,98,79,57,29.95,29.87,9,2,16,0.11
2013-5-13,63.5,55.8,44.6,54.2,46.4,38.0,94,72,51,30.04,29.78,11,2,20,0.26
2013-5-14,66.6,53.7,43.3,47.4,43.2,38.6,86,69,40,30.11,30.03,7,1,13,0.02
2013-5-15,66.7,55.4,49.1,48.6,47.0,44.3,95,75,47,30.05,27.00,57,1,58,0.01
2013-5-16,68.2,57.2,50.4,52.2,49.6,36.4,93,77,56,29.95,29.81,6,1,9,0.06
2013-5-17,62.2,54.3,47.7,55.5,50.7,45.0,94,88,74,29.93,29.84,8,1,12,0.33
2013-5-18,61.3,53.7,45.9,52.6,48.9,44.2,95,84,68,30.19,29.93,5,1,9,0.09
2013-5-19,68.4,58.1,49.6,48.9,45.0,41.3,90,64,43,30.32,30.19,11,3,20,0.00
2013-5-20,64.2,53.2,45.0,52.1,47.2,42.5,93,81,59,30.27,29.86,8,2,13,0.30
2013-5-21,54.9,49.1,45.5,46.5,44.8,42.6,95,86,65,29.85,29.71,7,1,12,0.14
2013-5-22,64.8,53.8,43.9,47.8,44.0,38.2,95,72,43,29.82,29.74,6,1,9,0.00
2013-5-23,63.7,54.2,45.9,48.4,44.1,37.0,95,71,40,29.92,29.80,7,2,11,0.18
2013-5-24,66.2,53.9,39.9,50.8,44.0,37.5,93,71,48,29.93,29.91,8,1,11,0.05
2013-5-25,63.7,53.2,42.3,51.4,45.3,39.5,92,76,53,29.94,29.91,8,1,12,0.02
2013-5-26,63.0,55.5,48.4,51.5,48.3,44.1,89,77,62,29.92,29.85,8,2,13,0.00
2013-5-27,54.5,53.1,51.6,53.1,51.4,49.4,99,94,85,29.85,29.62,8,3,15,0.47
2013-5-28,57.2,53.3,51.3,53.1,50.9,48.8,99,92,77,29.77,29.65,10,3,18,0.08
2013-5-29,56.3,52.0,48.9,51.6,49.7,47.8,97,92,83,29.83,29.63,6,1,13,0.44
2013-5-30,62.1,52.2,43.0,51.0,47.6,42.2,98,85,55,30.15,29.83,8,2,16,0.05
2013-5-31,65.3,55.0,44.6,54.6,47.5,43.1,96,77,53,30.27,30.14,6,1,9,0.01
2013-6-1,63.7,55.3,48.6,52.5,49.1,46.3,95,81,57,30.17,30.04,8,1,13,0.08
2013-6-2,70.9,61.3,51.4,50.5,47.5,44.8,83,62,43,30.05,29.94,11,5,20,0.00
2013-6-3,71.6,61.5,51.4,49.7,47.0,43.3,83,60,38,30.05,29.99,8,2,16,0.00
2013-6-4,80.6,65.7,47.7,54.2,47.5,37.7,87,57,23,30.08,29.95,5,1,8,0.00
2013-6-5,74.8,67.3,57.6,57.4,52.3,41.6,76,60,43,30.03,29.95,10,3,16,0.00
2013-6-6,78.3,67.4,55.2,56.0,48.8,40.9,76,53,37,29.99,29.91,6,2,11,0.00
2013-6-7,73.2,64.8,59.4,57.1,54.0,47.4,87,69,54,30.03,29.89,7,2,13,0.00
2013-6-8,65.7,59.4,52.2,51.8,48.8,46.2,84,68,56,30.09,30.03,5,1,8,0.00
2013-6-9,67.6,58.4,47.3,48.8,45.1,42.1,93,64,42,30.03,29.95,8,2,13,0.00
2013-6-10,72.0,61.3,50.5,48.1,44.4,40.6,75,56,35,29.97,29.78,8,2,14,0.00
2013-6-11,70.7,59.5,51.8,48.8,44.8,40.4,81,59,37,29.99,29.79,7,1,13,0.01
2013-6-12,63.3,54.2,45.9,53.9,48.8,43.2,92,82,64,30.06,29.98,7,1,11,0.19
2013-6-13,87.4,59.8,44.2,62.2,47.8,42.6,96,68,39,30.10,30.06,8,1,11,0.00
2013-6-14,66.6,59.5,53.6,53.2,50.6,46.9,84,73,58,30.11,30.01,8,2,15,0.00
2013-6-15,74.1,61.9,44.8,54.3,49.7,43.2,96,67,44,30.01,29.86,8,1,13,0.00
2013-6-16,81.3,67.5,51.4,57.9,53.1,48.2,91,63,35,29.97,29.89,5,1,8,0.00
2013-6-17,74.8,66.4,57.7,56.0,53.0,48.0,86,64,43,29.97,29.83,9,2,14,0.04
2013-6-18,74.5,60.8,50.9,55.8,52.1,47.2,95,75,42,29.88,29.83,5,1,8,0.08
2013-6-19,72.5,62.5,48.7,52.5,49.7,45.9,92,65,48,29.89,29.81,7,2,13,0.00
2013-6-20,60.6,58.0,55.4,54.4,51.5,47.4,95,80,62,29.99,29.81,7,2,12,0.18
2013-6-21,67.5,60.0,53.8,56.5,54.2,29.5,96,82,64,30.26,29.99,6,1,13,0.01
2013-6-22,72.3,63.2,54.1,57.4,54.1,42.3,91,73,50,30.19,29.82,6,1,9,0.00
2013-6-23,67.5,60.1,49.1,60.2,55.1,47.1,94,84,68,29.82,29.54,4,1,8,0.09
2013-6-24,67.1,60.9,57.7,61.7,57.0,51.4,99,88,60,29.61,29.46,8,2,15,0.45
2013-6-25,68.0,59.4,56.1,59.1,56.2,54.1,97,89,71,29.71,29.58,8,3,16,0.30
2013-6-26,69.6,59.3,55.2,59.7,56.0,54.3,99,90,70,29.88,29.71,8,3,13,0.04
2013-6-29,83.1,82.2,81.5,63.5,62.9,61.2,53,52,51,30.00,29.94,4,2,8,0.04
2013-6-30,91.4,82.2,56.3,64.0,60.3,35.2,77,49,30,29.95,29.68,5,2,8,0.04
2013-7-1,92.5,78.2,64.4,64.6,62.0,58.4,85,60,39,29.92,29.82,5,1,9,0.00
2013-7-2,84.6,75.5,44.6,64.6,57.4,37.8,84,56,36,30.01,29.90,8,3,14,0.00
2013-7-3,80.2,69.1,60.8,55.9,50.4,45.5,74,53,34,30.08,29.95,8,3,15,0.00
2013-7-4,75.6,67.5,59.5,52.5,49.2,45.9,67,53,38,30.02,29.94,11,3,18,0.00
2013-7-5,75.9,67.7,58.5,53.0,50.4,47.2,74,55,40,29.97,29.86,11,4,18,0.00
2013-7-6,80.6,69.8,57.4,54.1,51.3,48.0,74,53,37,29.93,29.79,9,3,17,0.00
2013-7-7,78.3,69.0,59.2,56.6,53.5,50.0,76,59,47,29.87,29.80,8,3,15,0.00
2013-7-8,80.6,70.9,59.4,56.9,54.1,49.1,80,57,43,30.00,29.87,7,3,13,0.00
2013-7-9,83.7,73.9,62.8,60.7,55.6,49.8,71,54,39,30.04,29.90,5,1,10,0.00
2013-7-10,77.7,68.4,59.7,57.0,52.8,41.5,78,59,43,29.95,29.81,7,2,13,0.00
2013-7-11,72.9,63.2,53.1,49.8,45.5,39.4,72,54,34,29.98,29.85,7,2,13,0.00
2013-7-12,75.0,65.0,55.4,49.0,46.1,40.8,74,53,32,30.00,29.94,10,2,18,0.00
2013-7-13,78.1,66.9,53.4,49.2,47.8,41.2,80,52,30,30.14,30.00,8,2,14,0.00
2013-7-14,74.5,67.0,59.0,51.2,47.0,44.6,64,49,37,30.06,29.96,8,3,13,0.00
2013-7-15,82.2,71.3,59.4,53.1,45.6,35.7,65,43,21,30.27,29.88,10,4,17,0.00
2013-7-16,87.1,76.1,64.9,53.3,46.5,30.6,51,36,23,30.39,29.77,6,2,12,0.00
2013-7-17,81.3,71.7,62.6,61.1,54.6,40.3,77,56,31,30.09,29.79,6,2,11,0.00
2013-7-18,81.9,69.8,55.4,61.6,57.5,53.0,93,67,44,30.15,30.03,5,1,8,0.00
2013-7-19,83.8,71.6,59.4,61.6,59.2,56.0,90,67,44,30.08,29.95,5,1,10,0.00
2013-7-20,80.4,71.6,62.6,59.8,57.0,53.1,83,62,43,29.98,29.87,7,2,15,0.00
2013-7-21,79.0,69.5,59.7,60.4,56.7,53.2,84,65,49,29.89,29.82,7,2,12,0.00
2013-7-22,81.0,71.2,61.2,58.5,54.6,50.0,74,57,37,29.96,29.85,7,2,14,0.00
2013-7-23,87.6,74.9,61.5,54.7,50.0,44.0,66,43,29,30.01,29.89,7,2,13,0.00
2013-7-24,87.3,75.7,64.8,57.6,52.4,18.3,67,45,28,30.36,29.91,8,2,15,0.00
2013-7-25,84.4,73.6,62.1,58.1,53.8,27.4,76,51,35,30.52,29.95,7,2,13,0.00
2013-7-26,79.2,70.2,61.2,54.7,49.6,39.8,72,50,27,30.08,30.01,11,4,18,0.00
2013-7-27,78.3,68.9,58.6,51.1,48.4,45.0,72,50,32,30.08,29.92,11,4,20,0.00
2013-7-28,80.1,68.6,58.5,56.2,52.4,48.7,82,58,34,29.94,29.83,8,3,18,0.00
2013-7-29,82.6,69.6,53.6,60.2,53.3,45.6,89,60,31,29.92,29.85,5,1,10,0.00
2013-7-30,83.7,70.6,54.1,60.6,56.1,51.7,93,64,36,30.05,29.90,4,1,8,0.00
2013-7-31,83.3,71.0,55.9,61.2,57.2,53.2,92,65,40,30.04,29.89,6,2,11,0.00
2013-8-1,78.8,69.6,60.8,62.1,58.5,55.1,92,69,50,29.95,29.88,7,2,13,0.00
2013-8-2,63.9,61.3,58.6,59.3,57.4,55.9,93,87,79,30.06,29.92,4,1,8,0.02
2013-8-3,76.3,66.3,59.4,59.4,57.7,55.1,93,76,54,30.07,29.98,4,1,8,0.00
2013-8-4,81.9,70.4,56.1,58.2,56.5,53.0,92,64,41,30.00,29.87,6,2,10,0.00
2013-8-5,85.6,72.0,58.5,58.0,53.7,47.7,83,55,32,29.94,29.85,6,1,10,0.00
2013-8-6,86.4,71.8,54.5,60.4,54.9,48.3,86,59,27,29.93,29.85,5,1,8,0.00
2013-8-7,87.6,74.2,52.9,59.0,53.8,42.6,76,51,29,30.07,29.85,5,1,8,0.00
2013-8-8,85.5,73.7,58.1,63.2,58.3,47.3,89,61,39,29.94,29.85,7,1,11,0.00
2013-8-9,87.3,76.4,66.7,60.6,53.9,45.1,65,46,34,29.88,29.73,8,2,14,0.00
2013-8-10,80.1,71.4,62.2,62.7,59.6,54.5,86,67,52,29.91,29.78,5,2,8,0.00
2013-8-11,74.1,64.4,59.0,63.8,58.5,56.2,93,82,61,29.98,29.89,5,1,10,0.06
2013-8-12,77.4,68.2,57.2,62.7,58.9,55.2,95,74,50,29.98,29.93,5,1,11,0.00
2013-8-13,80.1,68.9,58.8,60.4,58.2,52.9,90,71,40,30.02,29.85,8,1,13,0.06
2013-8-14,72.5,64.7,55.0,62.8,56.6,51.7,92,76,59,29.88,29.82,7,2,11,0.02
2013-8-15,75.4,66.0,56.1,62.4,59.5,55.2,97,81,62,29.91,29.84,6,2,10,0.02
2013-8-16,75.6,65.3,59.9,63.0,60.4,57.5,96,85,61,29.93,29.89,7,1,10,0.06
2013-8-17,78.6,67.7,56.7,65.8,59.2,51.6,98,76,48,29.97,29.89,7,1,11,0.02
2013-8-18,72.9,62.5,53.2,60.2,55.3,50.4,91,78,62,30.03,29.95,4,1,9,0.00
2013-8-19,75.6,64.7,54.7,57.3,53.9,50.6,87,69,48,30.04,29.96,6,1,9,0.00
2013-8-20,76.3,67.5,59.5,53.2,46.3,36.9,74,49,25,30.11,30.02,10,3,20,0.00
2013-8-21,81.5,71.1,60.3,53.4,46.4,37.3,61,43,21,30.05,29.88,8,3,15,0.00
2013-8-22,87.3,74.3,61.2,57.3,51.5,43.2,74,46,23,29.89,29.71,6,2,12,0.00
2013-8-23,74.3,64.9,56.1,62.5,55.7,50.5,90,73,53,29.79,29.71,8,2,13,0.01
2013-8-24,73.9,60.7,51.8,61.4,55.8,50.5,97,85,55,29.84,29.78,6,1,9,0.35
2013-8-25,75.7,62.5,47.1,61.2,52.9,46.6,99,74,42,29.89,29.76,4,1,9,0.00
2013-8-26,73.0,61.0,49.3,60.9,53.0,46.0,96,77,42,29.83,29.75,8,2,15,0.06
2013-8-27,70.9,62.1,51.4,60.2,57.0,44.5,97,84,65,30.00,29.76,8,2,15,0.17
2013-8-28,71.1,63.7,57.7,62.5,60.0,56.8,99,88,73,29.83,29.76,7,1,12,0.07
2013-8-29,68.0,63.6,60.6,65.9,63.0,60.3,99,98,90,29.84,29.76,8,2,16,0.37
2013-8-30,72.5,61.8,55.4,61.1,57.9,54.3,99,88,66,30.08,29.84,4,1,8,0.01
2013-8-31,75.9,63.5,51.4,60.5,55.8,51.2,99,78,53,30.05,29.78,5,1,9,0.01
2013-9-1,81.1,66.8,52.2,61.9,56.4,50.8,96,72,49,29.81,29.72,4,1,7,0.00
2013-9-2,80.8,65.7,56.8,60.0,57.1,54.5,93,75,47,29.88,29.77,4,1,7,0.00
2013-9-3,73.9,62.3,54.5,64.6,58.7,53.4,99,89,66,29.98,29.88,4,1,8,0.14
2013-9-4,76.1,64.7,53.6,61.6,57.6,53.3,99,80,50,30.01,29.93,6,2,13,0.01
2013-9-5,75.9,68.1,63.0,59.6,56.3,53.0,78,66,52,30.00,29.84,8,3,16,0.01
2013-9-6,79.5,67.6,57.7,61.8,58.6,54.4,94,74,52,30.01,29.83,9,2,15,0.00
2013-9-7,79.0,65.8,57.6,62.5,59.3,56.3,97,81,55,30.03,29.96,6,1,9,0.00
2013-9-8,78.8,66.9,55.6,61.9,58.3,54.7,99,76,50,30.04,29.94,6,1,10,0.00
2013-9-9,77.4,65.4,55.4,60.9,56.9,49.0,96,76,54,30.01,29.92,8,2,13,0.00
2013-9-10,80.1,70.5,59.4,57.4,53.6,49.3,75,56,43,29.95,29.85,8,3,15,0.00
2013-9-11,90.0,74.1,58.3,59.5,55.2,51.3,85,55,32,29.91,29.83,5,1,8,0.00
2013-9-12,90.0,72.7,55.8,62.4,55.3,23.5,88,60,10,29.92,29.80,57,2,58,0.00
2013-9-13,79.9,67.0,54.7,63.3,58.6,53.6,98,77,52,29.88,29.76,4,1,7,0.00
2013-9-14,72.9,61.6,55.6,62.1,58.4,1.6,99,90,68,29.82,29.68,9,1,28,0.00
2013-9-15,72.3,60.1,52.9,63.9,58.5,51.7,99,95,70,30.01,29.62,26,1,26,0.15
2013-9-16,66.6,60.4,51.1,61.8,57.0,49.1,99,89,70,29.83,29.65,8,1,13,0.34
2013-9-17,70.3,59.3,49.3,52.7,50.2,47.8,98,74,51,29.83,29.75,8,1,13,0.00
2013-9-18,72.3,60.6,51.4,53.3,40.9,0.9,87,58,10,29.98,29.83,57,12,58,0.00
2013-9-19,72.0,61.3,53.2,53.0,49.1,7.2,90,67,10,29.98,29.65,57,3,58,0.00
2013-9-20,66.6,58.7,51.3,57.6,52.4,45.7,99,80,61,29.67,29.52,5,1,10,0.25
2013-9-21,72.5,59.0,49.5,61.0,54.3,49.2,99,86,55,29.63,29.55,4,1,8,0.02
2013-9-22,62.1,55.2,50.4,57.8,51.8,47.1,99,89,70,29.57,29.36,10,2,20,0.54
2013-9-23,70.3,56.6,45.1,49.2,44.0,39.2,90,65,34,29.85,29.56,9,1,15,0.00
2013-9-24,65.3,51.0,42.4,52.3,47.0,39.0,96,87,58,29.85,29.78,7,1,10,0.25
2013-9-25,65.7,55.5,46.0,47.3,45.0,39.7,94,70,45,29.95,29.82,11,4,21,0.00
2013-9-26,68.0,56.1,48.7,49.4,44.3,38.5,88,66,46,30.05,29.94,6,2,13,0.00
2013-9-27,52.3,50.8,49.1,52.1,50.0,47.5,99,97,87,29.99,29.70,6,1,11,0.31
2013-9-28,74.5,51.7,49.3,54.9,50.5,47.9,99,96,76,29.99,29.11,8,3,18,0.73
2013-9-29,79.7,51.4,46.9,54.9,49.8,43.6,99,95,40,29.80,28.94,12,3,21,1.30
2013-9-30,62.8,50.3,42.4,51.4,45.7,40.4,99,85,55,29.75,29.10,8,2,17,0.33
2013-10-1,64.2,48.3,41.0,50.2,44.7,39.8,99,89,47,29.99,29.75,6,1,10,0.26
2013-10-2,50.4,47.9,45.9,47.8,46.5,44.1,99,95,86,30.14,29.96,5,1,10,0.08
2013-10-3,74.7,50.1,41.7,57.2,45.2,40.9,99,84,46,30.38,29.83,5,1,8,0.01
2013-10-4,53.8,48.4,40.5,48.9,45.8,39.9,99,91,80,30.40,30.28,6,2,11,0.00
2013-10-5,60.3,54.2,48.4,49.9,48.2,46.6,94,81,65,30.28,30.07,8,2,13,0.00
2013-10-6,69.4,57.4,44.6,53.4,48.6,43.0,99,75,50,30.07,29.66,8,3,21,0.00
2013-10-7,65.7,56.5,49.8,49.9,46.8,43.2,93,71,47,29.88,29.68,5,1,12,0.05
2013-10-8,59.4,52.5,47.3,48.0,42.6,39.8,94,70,51,30.04,29.87,15,4,26,0.01
2013-10-9,60.8,51.2,43.3,47.9,43.2,38.3,88,75,60,30.06,29.87,7,1,11,0.00
2013-10-10,59.2,49.2,41.5,49.4,44.1,38.8,98,84,60,29.99,29.86,8,1,18,0.09
2013-10-11,55.8,48.9,43.0,45.5,42.5,36.8,93,79,65,30.08,29.99,3,0,6,0.00
2013-10-12,60.3,50.8,44.2,47.8,44.3,40.1,97,80,61,30.16,30.02,8,2,15,0.01
2013-10-13,65.5,50.4,39.7,47.5,43.1,38.6,96,77,48,30.31,30.16,4,1,8,0.00
2013-10-14,63.7,49.1,37.8,48.2,43.7,36.8,99,83,56,30.37,30.30,7,1,9,0.00
2013-10-15,66.6,49.9,40.5,54.9,44.9,39.5,99,84,55,30.32,30.12,4,1,8,0.00
2013-10-16,62.2,51.8,41.5,49.7,46.9,40.8,99,84,62,30.16,30.09,7,2,14,0.00
2013-10-17,62.6,47.9,37.6,53.9,44.8,37.3,99,90,65,30.23,30.13,4,1,7,0.00
2013-10-18,58.8,46.0,36.9,53.7,44.1,36.6,99,94,74,30.20,30.09,4,0,9,0.01
2013-10-19,51.3,45.2,39.9,48.4,44.4,39.7,99,97,89,30.14,30.09,6,1,12,0.00
2013-10-20,52.2,46.0,42.4,47.9,45.1,42.2,99,97,84,30.16,30.08,5,1,10,0.01
2013-10-21,59.2,46.9,41.9,51.6,45.2,41.6,99,94,75,30.13,30.04,3,1,7,0.00
2013-10-22,81.5,47.9,35.2,52.7,43.9,35.0,99,88,56,30.08,29.85,4,0,8,0.01
2013-10-23,70.0,49.5,38.3,58.2,45.2,38.0,99,87,53,30.00,29.92,4,0,7,0.00
2013-10-24,68.2,49.0,37.8,57.2,44.7,37.1,99,87,55,30.03,29.95,4,0,7,0.01
2013-10-25,52.2,46.5,39.7,50.6,45.9,39.5,99,98,89,30.27,30.03,2,0,5,0.01
2013-10-26,61.0,49.5,45.1,51.3,46.8,42.7,99,91,66,30.30,30.09,8,2,15,0.00
2013-10-27,62.1,53.8,43.2,45.6,41.3,35.0,96,65,45,30.09,29.91,17,5,30,0.01
2013-10-28,62.2,50.8,34.9,35.0,27.1,21.7,71,41,26,30.00,29.88,10,3,18,0.00
2013-10-29,35.1,33.2,31.6,27.6,26.8,26.2,81,77,71,29.91,29.89,2,0,2,0.00
2013-11-2,48.2,46.0,41.9,43.0,40.9,37.3,96,83,78,29.79,29.45,14,5,27,0.05
2013-11-3,54.5,43.0,33.6,38.8,34.6,30.3,90,73,55,30.04,29.80,10,2,18,0.00
2013-11-4,45.1,39.9,32.5,40.1,36.4,29.8,98,88,76,30.11,30.00,8,2,13,0.05
2013-11-5,43.2,41.0,38.8,41.4,40.3,38.6,99,97,93,30.18,29.97,4,0,8,0.11
2013-11-6,46.8,43.6,40.1,43.5,42.2,39.8,99,95,88,30.25,29.90,7,1,13,0.25
2013-11-7,52.7,46.9,43.0,48.6,45.7,42.7,99,96,85,29.90,29.53,9,3,18,0.56
2013-11-8,70.0,45.1,37.0,50.8,41.2,35.8,99,88,52,30.05,29.82,5,0,58,0.01
2013-11-9,46.8,44.1,39.6,46.0,43.1,39.3,99,96,89,30.08,30.03,4,1,9,0.13
2013-11-10,49.8,44.4,41.7,44.9,42.1,39.8,99,92,82,30.12,30.07,6,2,11,0.00
2013-11-11,54.9,47.3,41.7,42.0,40.4,38.4,96,78,56,30.12,29.91,7,2,10,0.00
2013-11-12,56.5,49.9,46.4,51.7,46.8,40.1,99,89,70,30.20,29.90,7,2,13,0.15
2013-11-13,73.0,48.5,41.2,51.0,44.3,40.9,99,87,50,30.30,30.02,3,0,6,0.01
2013-11-14,54.9,46.2,39.9,45.1,40.5,35.5,98,81,58,30.22,29.96,10,2,18,0.00
2013-11-15,44.8,42.1,38.7,43.7,39.4,36.0,98,90,81,29.96,29.22,12,2,22,0.06
2013-11-16,56.8,41.7,31.5,37.5,34.2,28.6,91,75,59,29.72,29.26,13,3,25,0.00
2013-11-17,57.6,41.4,30.4,42.3,36.4,28.9,97,83,57,29.75,29.62,5,1,9,0.00
2013-11-18,44.4,41.5,38.8,43.4,40.2,36.4,99,95,87,29.76,29.50,3,0,6,0.37
2013-11-19,47.5,38.7,33.4,40.4,25.6,8.6,99,64,26,30.04,29.50,14,4,21,0.04
2013-11-20,50.5,33.0,23.7,29.4,20.3,13.0,85,61,42,30.45,30.04,7,2,14,0.00
2013-11-21,50.2,31.4,23.0,33.9,26.9,19.4,96,84,52,30.61,30.45,4,0,8,0.00
2013-11-22,53.2,33.6,24.8,40.4,30.2,23.8,98,88,53,30.60,30.40,4,0,8,0.00
2013-11-23,48.7,35.1,27.1,40.6,32.5,26.2,99,91,73,30.40,25.05,57,0,58,0.00
2013-11-24,52.5,38.0,30.7,43.3,34.4,30.1,99,88,58,30.18,30.12,3,0,5,0.01
2013-11-25,56.3,38.8,31.3,42.2,34.7,30.7,99,87,55,30.24,30.18,6,1,10,0.00
2013-11-26,50.4,39.6,27.9,40.8,33.9,27.6,99,82,51,30.20,23.73,57,2,58,0.00
2013-11-27,71.8,42.4,36.7,44.1,39.2,33.5,99,89,74,30.04,29.91,4,0,6,0.00
2013-11-28,50.7,41.9,33.3,42.4,39.0,32.3,99,90,74,30.10,29.95,4,1,10,0.00
2013-11-29,52.7,44.0,36.9,46.1,42.7,36.1,99,95,83,30.18,30.09,5,0,8,0.11
2013-11-30,46.0,45.0,43.7,45.8,44.7,43.3,99,99,99,30.20,29.91,7,2,12,0.12
2013-12-1,56.5,45.7,38.7,46.9,40.7,32.1,99,84,54,29.91,29.59,10,2,20,0.02
2013-12-2,45.5,37.2,32.0,34.2,28.5,20.7,92,71,51,30.07,29.69,11,3,21,0.00
2013-12-3,47.5,32.4,22.8,25.2,20.2,18.3,86,62,41,30.27,30.07,7,2,13,0.00
2013-12-4,41.5,28.2,20.5,22.0,18.8,16.1,89,70,42,30.30,30.25,6,1,13,0.00
2013-12-5,30.9,27.1,21.6,27.7,22.6,17.9,93,83,63,30.25,30.13,5,1,9,0.00
2013-12-6,36.7,24.7,19.2,19.8,12.4,0.0,92,61,36,30.26,30.14,7,1,9,0.00
2013-12-7,41.4,19.7,11.3,18.3,8.2,1.2,81,63,28,30.32,30.25,4,0,8,0.00
2013-12-8,41.2,22.1,14.4,27.5,16.5,9.6,91,80,55,30.46,30.31,4,0,7,0.00
2013-12-9,55.6,28.4,17.4,30.9,26.2,15.5,99,92,80,30.46,29.64,4,1,7,0.00
2013-12-10,34.9,33.2,30.6,34.4,32.9,30.3,99,99,98,30.40,30.34,4,1,8,0.01
2013-12-11,39.2,36.3,34.7,35.9,34.4,31.1,99,93,84,30.34,30.07,4,2,8,0.01
2013-12-12,40.3,37.8,35.4,39.5,35.4,30.1,99,91,78,30.07,29.91,6,2,11,0.11
2013-12-13,42.6,41.2,39.6,42.2,40.9,39.1,99,99,99,30.33,30.04,4,1,7,0.01
2013-12-14,46.6,43.6,41.9,46.1,43.3,41.6,99,99,98,30.33,30.17,6,2,13,0.00
2013-12-15,50.7,42.0,31.5,48.1,41.3,30.9,99,98,83,30.33,30.16,5,1,9,0.01
2013-12-16,42.1,37.0,28.9,41.8,36.7,28.3,99,99,98,30.39,30.18,5,1,8,0.00
2013-12-17,45.9,42.4,40.8,43.1,41.2,39.3,99,95,87,30.18,29.97,6,2,13,0.01
2013-12-18,45.5,38.1,34.2,39.5,32.5,27.1,99,81,61,30.20,29.95,12,3,22,0.01
2013-12-19,37.6,33.5,27.3,31.8,26.7,21.8,99,76,63,30.28,30.08,7,1,10,0.00
2013-12-20,64.4,32.5,32.2,32.7,32.2,31.8,99,99,99,30.09,29.65,7,1,13,0.00
2013-12-21,39.0,35.7,32.7,38.0,35.4,32.5,99,99,98,30.08,29.80,3,0,6,0.22
2013-12-22,41.4,38.8,36.9,40.7,38.5,36.6,99,99,99,30.20,30.08,5,2,10,0.14
2013-12-23,55.6,42.4,37.2,49.7,40.2,35.2,99,93,60,30.39,29.96,9,2,16,0.01
2013-12-24,44.2,37.1,30.7,43.1,36.5,30.1,99,98,90,30.53,30.39,3,0,6,0.01
2013-12-25,41.9,37.7,32.2,39.3,36.6,31.2,99,96,87,30.48,30.30,6,1,11,0.00
2013-12-26,43.2,41.3,39.6,42.4,40.8,38.5,99,98,95,30.31,30.12,5,2,12,0.00
2013-12-27,53.8,42.6,39.2,46.9,40.7,38.0,99,93,81,30.27,29.92,11,2,18,0.05
2013-12-28,46.2,41.5,33.3,39.2,37.7,32.1,98,87,74,30.44,30.27,7,1,13,0.00
2013-12-29,43.7,39.0,32.0,43.4,38.7,30.9,99,99,95,30.41,30.24,4,1,6,0.05
2013-12-30,66.0,41.4,37.6,42.9,41.0,37.1,99,99,95,30.24,29.74,5,2,11,0.02
2013-12-31,46.0,42.6,38.3,45.8,42.3,38.0,99,99,98,30.30,30.07,3,0,6,0.01
2014-1-1,44.1,42.5,41.7,43.6,42.3,41.3,99,99,99,30.33,30.17,6,2,10,0.08
2014-1-2,44.2,42.6,39.9,44.0,41.9,34.8,99,98,85,30.17,29.74,13,3,21,0.13